Time,TemperatureF,DewpointF,PressureIn,WindDirection,WindDirectionDegrees,WindSpeedMPH,WindSpeedGustMPH,Humidity,HourlyPrecipIn,Conditions,Clouds,dailyrainin,SolarRadiationWatts/m^2,SoftwareType,DateUTC
2013-06-17 00:10:00,78.5,76.0,30.05,South,181,0.0,-999.0,91,-99.99,,,0.00,0,weatherlink.com 1.10,2013-06-17 04:10:00,
2013-06-17 00:25:00,78.3,76.0,30.06,South,172,0.0,-999.0,91,-99.99,,,0.00,0,weatherlink.com 1.10,2013-06-17 04:25:00,
2013-06-17 00:40:00,77.9,76.0,30.05,South,172,0.0,-999.0,92,-99.99,,,0.00,0,weatherlink.com 1.10,2013-06-17 04:40:00,
2013-06-17 00:55:00,77.6,76.0,30.05,South,172,0.0,-999.0,93,-99.99,,,0.00,0,weatherlink.com 1.10,2013-06-17 04:55:00,
2013-06-17 01:10:00,77.0,75.0,30.04,South,172,0.0,-999.0,94,-99.99,,,0.00,0,weatherlink.com 1.10,2013-06-17 05:10:00,
2013-06-17 01:25:00,76.7,75.0,30.05,South,172,0.0,-999.0,95,-99.99,,,0.00,0,weatherlink.com 1.10,2013-06-17 05:25:00,
2013-06-17 01:40:00,76.7,76.0,30.05,East,82,0.0,-999.0,96,-99.99,,,0.00,0,weatherlink.com 1.10,2013-06-17 05:40:00,
2013-06-17 01:55:00,76.5,76.0,30.05,East,82,0.0,-999.0,97,-99.99,,,0.00,0,weatherlink.com 1.10,2013-06-17 05:55:00,
2013-06-17 02:10:00,76.5,76.0,30.03,ENE,60,0.0,-999.0,97,-99.99,,,0.00,0,weatherlink.com 1.10,2013-06-17 06:10:00,
2013-06-17 02:25:00,76.8,76.0,30.02,East,96,0.0,-999.0,97,-99.99,,,0.00,0,weatherlink.com 1.10,2013-06-17 06:25:00,
2013-06-17 02:40:00,76.7,76.0,30.01,East,96,0.0,-999.0,97,-99.99,,,0.00,0,weatherlink.com 1.10,2013-06-17 06:40:00,
2013-06-17 02:55:00,76.7,76.0,30.00,East,97,0.0,-999.0,96,-99.99,,,0.00,0,weatherlink.com 1.10,2013-06-17 06:55:00,
2013-06-17 03:10:00,76.5,76.0,30.00,East,96,1.0,-999.0,97,-99.99,,,0.00,0,weatherlink.com 1.10,2013-06-17 07:10:00,
2013-06-17 03:25:00,76.5,76.0,30.00,East,96,0.0,-999.0,97,-99.99,,,0.00,0,weatherlink.com 1.10,2013-06-17 07:25:00,
2013-06-17 03:40:00,76.1,75.0,30.00,East,96,0.0,-999.0,97,-99.99,,,0.00,0,weatherlink.com 1.10,2013-06-17 07:40:00,
2013-06-17 03:55:00,76.0,75.0,30.00,East,96,0.0,-999.0,97,-99.99,,,0.00,0,weatherlink.com 1.10,2013-06-17 07:55:00,
2013-06-17 04:10:00,75.6,75.0,30.00,East,96,0.0,-999.0,98,-99.99,,,0.00,0,weatherlink.com 1.10,2013-06-17 08:10:00,
2013-06-17 04:25:00,75.8,75.0,30.00,East,96,0.0,-999.0,98,-99.99,,,0.00,0,weatherlink.com 1.10,2013-06-17 08:25:00,
2013-06-17 04:40:00,75.8,76.0,30.01,East,96,0.0,-999.0,99,-99.99,,,0.00,0,weatherlink.com 1.10,2013-06-17 08:40:00,
2013-06-17 04:55:00,75.8,76.0,30.01,East,96,0.0,-999.0,99,-99.99,,,0.00,0,weatherlink.com 1.10,2013-06-17 08:55:00,
2013-06-17 05:10:00,75.6,76.0,30.01,East,96,0.0,-999.0,100,-99.99,,,0.00,0,weatherlink.com 1.10,2013-06-17 09:10:00,
2013-06-17 05:25:00,75.6,76.0,30.01,East,96,0.0,-999.0,100,-99.99,,,0.00,0,weatherlink.com 1.10,2013-06-17 09:25:00,
2013-06-17 05:40:00,75.6,76.0,30.01,East,96,0.0,-999.0,100,-99.99,,,0.00,0,weatherlink.com 1.10,2013-06-17 09:40:00,
2013-06-17 05:55:00,75.4,75.0,30.01,East,96,0.0,-999.0,100,-99.99,,,0.00,0,weatherlink.com 1.10,2013-06-17 09:55:00,
2013-06-17 06:10:00,75.4,75.0,30.02,East,96,0.0,-999.0,100,-99.99,,,0.00,0,weatherlink.com 1.10,2013-06-17 10:10:00,
2013-06-17 06:25:00,75.3,75.0,30.02,East,96,0.0,-999.0,100,-99.99,,,0.00,0,weatherlink.com 1.10,2013-06-17 10:25:00,
2013-06-17 06:40:00,75.4,75.0,30.02,East,96,0.0,-999.0,100,-99.99,,,0.00,5,weatherlink.com 1.10,2013-06-17 10:40:00,
2013-06-17 06:55:00,75.6,76.0,30.02,SSW,203,0.0,-999.0,100,-99.99,,,0.00,18,weatherlink.com 1.10,2013-06-17 10:55:00,
2013-06-17 07:10:00,76.0,76.0,30.01,South,182,1.0,-999.0,100,-99.99,,,0.00,44,weatherlink.com 1.10,2013-06-17 11:10:00,
2013-06-17 07:25:00,76.3,76.0,30.01,South,182,0.0,-999.0,100,-99.99,,,0.01,74,weatherlink.com 1.10,2013-06-17 11:25:00,
2013-06-17 07:40:00,76.8,77.0,30.01,South,176,0.0,-999.0,100,-99.99,,,0.01,118,weatherlink.com 1.10,2013-06-17 11:40:00,
2013-06-17 07:55:00,77.9,78.0,30.02,South,176,0.0,-999.0,100,-99.99,,,0.01,162,weatherlink.com 1.10,2013-06-17 11:55:00,
2013-06-17 08:10:00,78.8,78.0,30.02,South,176,0.0,-999.0,97,-99.99,,,0.01,200,weatherlink.com 1.10,2013-06-17 12:10:00,
2013-06-17 08:25:00,80.1,78.0,30.03,South,176,0.0,-999.0,94,-99.99,,,0.01,253,weatherlink.com 1.10,2013-06-17 12:25:00,
2013-06-17 08:40:00,80.9,78.0,30.04,WSW,252,0.0,-999.0,89,-99.99,,,0.01,304,weatherlink.com 1.10,2013-06-17 12:40:00,
2013-06-17 08:55:00,82.2,77.0,30.04,WSW,238,0.0,-999.0,85,-99.99,,,0.01,353,weatherlink.com 1.10,2013-06-17 12:55:00,
2013-06-17 09:10:00,83.6,77.0,30.04,SSW,212,0.0,-999.0,81,-99.99,,,0.01,403,weatherlink.com 1.10,2013-06-17 13:10:00,
2013-06-17 09:25:00,83.8,77.0,30.04,SSE,154,0.0,-999.0,80,-99.99,,,0.01,459,weatherlink.com 1.10,2013-06-17 13:25:00,
2013-06-17 09:40:00,84.3,76.0,30.04,SSW,211,0.0,-999.0,77,-99.99,,,0.01,503,weatherlink.com 1.10,2013-06-17 13:40:00,
2013-06-17 09:55:00,85.5,77.0,30.04,South,191,0.0,-999.0,76,-99.99,,,0.01,554,weatherlink.com 1.10,2013-06-17 13:55:00,
2013-06-17 10:10:00,87.0,77.0,30.03,South,185,0.0,-999.0,73,-99.99,,,0.01,633,weatherlink.com 1.10,2013-06-17 14:10:00,
2013-06-17 10:25:00,85.3,76.0,30.03,SSE,156,0.0,-999.0,74,-99.99,,,0.01,185,weatherlink.com 1.10,2013-06-17 14:25:00,
2013-06-17 10:40:00,87.2,77.0,30.03,South,169,7.0,-999.0,71,-99.99,,,0.01,696,weatherlink.com 1.10,2013-06-17 14:40:00,
2013-06-17 10:55:00,87.0,76.0,30.03,WSW,252,0.0,-999.0,69,-99.99,,,0.01,728,weatherlink.com 1.10,2013-06-17 14:55:00,
2013-06-17 11:10:00,87.2,76.0,30.03,West,259,2.0,-999.0,69,-99.99,,,0.01,148,weatherlink.com 1.10,2013-06-17 15:10:00,
2013-06-17 11:25:00,88.0,75.0,30.03,SW,227,0.0,-999.0,66,-99.99,,,0.01,870,weatherlink.com 1.10,2013-06-17 15:25:00,
2013-06-17 11:40:00,89.3,74.0,30.03,SSE,168,0.0,-999.0,61,-99.99,,,0.01,925,weatherlink.com 1.10,2013-06-17 15:40:00,
2013-06-17 11:55:00,90.7,75.0,30.03,WSW,249,3.0,-999.0,61,-99.99,,,0.01,867,weatherlink.com 1.10,2013-06-17 15:55:00,
2013-06-17 12:10:00,89.0,74.0,30.03,SSW,194,0.0,-999.0,62,-99.99,,,0.01,227,weatherlink.com 1.10,2013-06-17 16:10:00,
2013-06-17 12:25:00,90.1,72.0,30.02,SE,134,5.0,-999.0,56,-99.99,,,0.01,954,weatherlink.com 1.10,2013-06-17 16:25:00,
2013-06-17 12:40:00,91.4,74.0,30.02,WNW,292,3.0,-999.0,57,-99.99,,,0.01,949,weatherlink.com 1.10,2013-06-17 16:40:00,
2013-06-17 12:55:00,91.8,73.0,30.02,South,175,0.0,-999.0,55,-99.99,,,0.01,958,weatherlink.com 1.10,2013-06-17 16:55:00,
2013-06-17 13:10:00,92.1,73.0,30.02,SSE,168,0.0,-999.0,54,-99.99,,,0.01,1021,weatherlink.com 1.10,2013-06-17 17:10:00,
2013-06-17 13:25:00,91.4,73.0,30.02,WNW,300,0.0,-999.0,55,-99.99,,,0.01,1023,weatherlink.com 1.10,2013-06-17 17:25:00,
2013-06-17 13:40:00,91.8,73.0,30.02,WSW,257,5.0,-999.0,54,-99.99,,,0.01,1032,weatherlink.com 1.10,2013-06-17 17:40:00,
2013-06-17 13:55:00,91.4,72.0,30.01,West,279,1.0,-999.0,54,-99.99,,,0.01,1048,weatherlink.com 1.10,2013-06-17 17:55:00,
2013-06-17 14:10:00,92.3,74.0,30.00,SSE,148,1.0,-999.0,56,-99.99,,,0.01,1074,weatherlink.com 1.10,2013-06-17 18:10:00,
2013-06-17 14:25:00,92.7,74.0,30.00,WSW,250,0.0,-999.0,55,-99.99,,,0.01,1005,weatherlink.com 1.10,2013-06-17 18:25:00,
2013-06-17 14:40:00,93.2,75.0,29.99,SW,221,3.0,-999.0,55,-99.99,,,0.01,1042,weatherlink.com 1.10,2013-06-17 18:40:00,
2013-06-17 14:55:00,94.0,73.0,29.99,South,182,0.0,-999.0,50,-99.99,,,0.01,1009,weatherlink.com 1.10,2013-06-17 18:55:00,
2013-06-17 15:10:00,92.3,72.0,29.99,SSW,212,0.0,-999.0,52,-99.99,,,0.01,281,weatherlink.com 1.10,2013-06-17 19:10:00,
2013-06-17 15:25:00,93.8,73.0,29.99,SW,236,5.0,-999.0,51,-99.99,,,0.01,986,weatherlink.com 1.10,2013-06-17 19:25:00,
2013-06-17 15:40:00,94.0,73.0,29.98,SSE,164,5.0,-999.0,51,-99.99,,,0.01,970,weatherlink.com 1.10,2013-06-17 19:40:00,
2013-06-17 15:55:00,94.7,73.0,29.98,WSW,245,4.0,-999.0,49,-99.99,,,0.01,886,weatherlink.com 1.10,2013-06-17 19:55:00,
2013-06-17 16:10:00,93.8,73.0,29.97,SSE,160,0.0,-999.0,51,-99.99,,,0.01,216,weatherlink.com 1.10,2013-06-17 20:10:00,
2013-06-17 16:25:00,92.1,74.0,29.97,South,188,0.0,-999.0,55,-99.99,,,0.01,146,weatherlink.com 1.10,2013-06-17 20:25:00,
2013-06-17 16:40:00,91.0,73.0,29.96,SSE,162,1.0,-999.0,56,-99.99,,,0.01,142,weatherlink.com 1.10,2013-06-17 20:40:00,
2013-06-17 16:55:00,91.0,73.0,29.96,SSE,165,0.0,-999.0,56,-99.99,,,0.01,148,weatherlink.com 1.10,2013-06-17 20:55:00,
2013-06-17 17:10:00,90.7,72.0,29.95,South,178,0.0,-999.0,55,-99.99,,,0.01,127,weatherlink.com 1.10,2013-06-17 21:10:00,
2013-06-17 17:25:00,91.4,72.0,29.95,SE,136,6.0,-999.0,53,-99.99,,,0.01,624,weatherlink.com 1.10,2013-06-17 21:25:00,
2013-06-17 17:40:00,93.6,72.0,29.95,South,190,0.0,-999.0,50,-99.99,,,0.01,613,weatherlink.com 1.10,2013-06-17 21:40:00,
2013-06-17 17:55:00,92.5,72.0,29.95,WSW,243,0.0,-999.0,51,-99.99,,,0.01,596,weatherlink.com 1.10,2013-06-17 21:55:00,
2013-06-17 18:10:00,92.3,72.0,29.94,West,279,0.0,-999.0,52,-99.99,,,0.01,118,weatherlink.com 1.10,2013-06-17 22:10:00,
2013-06-17 18:25:00,87.6,76.0,29.96,West,271,8.0,-999.0,68,-99.99,,,0.01,91,weatherlink.com 1.10,2013-06-17 22:25:00,
2013-06-17 18:40:00,85.7,76.0,29.95,WSW,250,0.0,-999.0,73,-99.99,,,0.01,107,weatherlink.com 1.10,2013-06-17 22:40:00,
2013-06-17 18:55:00,85.3,76.0,29.96,WSW,237,0.0,-999.0,74,-99.99,,,0.01,113,weatherlink.com 1.10,2013-06-17 22:55:00,
2013-06-17 19:10:00,85.7,76.0,29.95,WSW,258,0.0,-999.0,73,-99.99,,,0.01,283,weatherlink.com 1.10,2013-06-17 23:10:00,
2013-06-17 19:25:00,87.0,77.0,29.95,WSW,252,0.0,-999.0,71,-99.99,,,0.01,142,weatherlink.com 1.10,2013-06-17 23:25:00,
2013-06-17 19:40:00,87.8,76.0,29.96,West,261,0.0,-999.0,69,-99.99,,,0.01,139,weatherlink.com 1.10,2013-06-17 23:40:00,
2013-06-17 19:55:00,87.4,77.0,29.97,West,261,0.0,-999.0,70,-99.99,,,0.01,49,weatherlink.com 1.10,2013-06-17 23:55:00,
2013-06-17 20:10:00,86.5,76.0,29.97,NNW,334,0.0,-999.0,70,-99.99,,,0.01,33,weatherlink.com 1.10,2013-06-18 00:10:00,
2013-06-17 20:25:00,85.7,76.0,29.97,NNW,334,0.0,-999.0,72,-99.99,,,0.01,14,weatherlink.com 1.10,2013-06-18 00:25:00,
2013-06-17 20:40:00,84.7,76.0,29.98,NNW,334,0.0,-999.0,74,-99.99,,,0.01,0,weatherlink.com 1.10,2013-06-18 00:40:00,
2013-06-17 20:55:00,84.1,76.0,29.98,NNW,334,0.0,-999.0,76,-99.99,,,0.01,0,weatherlink.com 1.10,2013-06-18 00:55:00,
2013-06-17 21:10:00,83.6,76.0,29.98,WNW,302,0.0,-999.0,77,-99.99,,,0.01,0,weatherlink.com 1.10,2013-06-18 01:10:00,
2013-06-17 21:25:00,83.4,76.0,29.98,NW,315,2.0,-999.0,77,-99.99,,,0.01,0,weatherlink.com 1.10,2013-06-18 01:25:00,
2013-06-17 21:40:00,83.0,76.0,29.99,NE,54,1.0,-999.0,80,-99.99,,,0.01,0,weatherlink.com 1.10,2013-06-18 01:40:00,
2013-06-17 21:55:00,81.6,77.0,30.01,NE,55,0.0,-999.0,85,-99.99,,,0.01,0,weatherlink.com 1.10,2013-06-18 01:55:00,
2013-06-17 22:10:00,80.7,76.0,30.02,NE,40,0.0,-999.0,86,-99.99,,,0.01,0,weatherlink.com 1.10,2013-06-18 02:10:00,
2013-06-17 22:25:00,80.3,76.0,30.01,NE,40,0.0,-999.0,87,-99.99,,,0.01,0,weatherlink.com 1.10,2013-06-18 02:25:00,
2013-06-17 22:40:00,79.9,76.0,30.02,NE,40,0.0,-999.0,87,-99.99,,,0.01,0,weatherlink.com 1.10,2013-06-18 02:40:00,
2013-06-17 22:55:00,79.2,73.0,30.04,SE,143,10.0,-999.0,82,-99.99,,,0.01,0,weatherlink.com 1.10,2013-06-18 02:55:00,
2013-06-17 23:10:00,78.3,71.0,30.05,SSE,147,9.0,-999.0,77,-99.99,,,0.01,0,weatherlink.com 1.10,2013-06-18 03:10:00,
2013-06-17 23:25:00,76.0,70.0,30.05,SSE,150,7.0,-999.0,81,-99.99,,,0.01,0,weatherlink.com 1.10,2013-06-18 03:25:00,
2013-06-17 23:40:00,74.7,70.0,30.04,ESE,107,0.0,-999.0,86,-99.99,,,0.01,0,weatherlink.com 1.10,2013-06-18 03:40:00,
2013-06-17 23:55:00,73.9,71.0,30.05,ENE,71,0.0,-999.0,91,-99.99,,,0.01,0,weatherlink.com 1.10,2013-06-18 03:55:00,